sensor_id;sensor_type;location;lat;lon;timestamp;pressure;altitude;pressure_sealevel;temperature;humidity
53270;BME280;39159;45.634;9.420;2023-05-12T00:02:04;98481.94;;;10.64;100.00
53270;BME280;39159;45.634;9.420;2023-05-12T00:04:29;98482.41;;;10.57;100.00
53270;BME280;39159;45.634;9.420;2023-05-12T00:06:55;98479.03;;;10.60;100.00
53270;BME280;39159;45.634;9.420;2023-05-12T00:09:21;98482.09;;;10.58;100.00
53270;BME280;39159;45.634;9.420;2023-05-12T00:11:46;98482.25;;;10.62;100.00
53270;BME280;39159;45.634;9.420;2023-05-12T00:14:12;98481.94;;;10.64;100.00
53270;BME280;39159;45.634;9.420;2023-05-12T00:16:38;98480.81;;;10.73;100.00
53270;BME280;39159;45.634;9.420;2023-05-12T00:19:03;98479.84;;;10.69;100.00
53270;BME280;39159;45.634;9.420;2023-05-12T00:21:29;98470.22;;;10.72;100.00
53270;BME280;39159;45.634;9.420;2023-05-12T00:23:54;98474.25;;;10.74;100.00
53270;BME280;39159;45.634;9.420;2023-05-12T00:26:19;98484.19;;;10.70;100.00
53270;BME280;39159;45.634;9.420;2023-05-12T00:28:45;98480.50;;;10.75;100.00
53270;BME280;39159;45.634;9.420;2023-05-12T00:31:11;98483.72;;;10.77;100.00
53270;BME280;39159;45.634;9.420;2023-05-12T00:33:37;98471.03;;;10.72;100.00
53270;BME280;39159;45.634;9.420;2023-05-12T00:36:02;98470.72;;;10.74;100.00
53270;BME280;39159;45.634;9.420;2023-05-12T00:38:28;98477.13;;;10.78;100.00
53270;BME280;39159;45.634;9.420;2023-05-12T00:40:54;98475.53;;;10.77;100.00
53270;BME280;39159;45.634;9.420;2023-05-12T00:43:19;98470.53;;;10.79;100.00
53270;BME280;39159;45.634;9.420;2023-05-12T00:45:44;98473.28;;;10.79;100.00
53270;BME280;39159;45.634;9.420;2023-05-12T00:48:10;98469.28;;;10.85;100.00
53270;BME280;39159;45.634;9.420;2023-05-12T00:50:36;98468.78;;;10.92;100.00
53270;BME280;39159;45.634;9.420;2023-05-12T00:53:03;98465.22;;;10.83;100.00
53270;BME280;39159;45.634;9.420;2023-05-12T00:55:29;98462.34;;;10.88;100.00
53270;BME280;39159;45.634;9.420;2023-05-12T00:57:55;98463.16;;;10.88;100.00
53270;BME280;39159;45.634;9.420;2023-05-12T01:00:21;98463.94;;;10.89;100.00
53270;BME280;39159;45.634;9.420;2023-05-12T01:02:47;98466.06;;;10.83;100.00
53270;BME280;39159;45.634;9.420;2023-05-12T01:05:12;98457.38;;;10.81;100.00
53270;BME280;39159;45.634;9.420;2023-05-12T01:07:39;98450.00;;;10.82;100.00
53270;BME280;39159;45.634;9.420;2023-05-12T01:10:18;98459.16;;;10.86;100.00
53270;BME280;39159;45.634;9.420;2023-05-12T01:12:44;98455.75;;;10.80;100.00
53270;BME280;39159;45.634;9.420;2023-05-12T01:15:10;98459.63;;;10.79;100.00
53270;BME280;39159;45.634;9.420;2023-05-12T01:17:39;98460.13;;;10.81;100.00
53270;BME280;39159;45.634;9.420;2023-05-12T01:20:05;98458.19;;;10.82;100.00
53270;BME280;39159;45.634;9.420;2023-05-12T01:22:32;98452.25;;;10.79;100.00
53270;BME280;39159;45.634;9.420;2023-05-12T01:25:01;98458.19;;;10.82;100.00
53270;BME280;39159;45.634;9.420;2023-05-12T01:27:28;98454.66;;;10.81;100.00
53270;BME280;39159;45.634;9.420;2023-05-12T01:30:00;98455.75;;;10.80;100.00
53270;BME280;39159;45.634;9.420;2023-05-12T01:32:26;98450.31;;;10.80;100.00
53270;BME280;39159;45.634;9.420;2023-05-12T01:34:51;98451.28;;;10.84;100.00
53270;BME280;39159;45.634;9.420;2023-05-12T01:37:17;98456.91;;;10.88;100.00
53270;BME280;39159;45.634;9.420;2023-05-12T01:39:43;98452.41;;;10.83;100.00
53270;BME280;39159;45.634;9.420;2023-05-12T01:42:09;98453.53;;;10.82;100.00
53270;BME280;39159;45.634;9.420;2023-05-12T01:44:34;98450.00;;;10.82;100.00
53270;BME280;39159;45.634;9.420;2023-05-12T01:47:00;98446.94;;;10.83;100.00
53270;BME280;39159;45.634;9.420;2023-05-12T01:49:26;98444.84;;;10.89;100.00
53270;BME280;39159;45.634;9.420;2023-05-12T01:51:52;98437.94;;;10.91;100.00
53270;BME280;39159;45.634;9.420;2023-05-12T01:54:17;98443.88;;;10.93;100.00
53270;BME280;39159;45.634;9.420;2023-05-12T01:56:43;98443.56;;;10.95;100.00
53270;BME280;39159;45.634;9.420;2023-05-12T01:59:08;98439.88;;;10.91;100.00
53270;BME280;39159;45.634;9.420;2023-05-12T02:01:34;98457.53;;;10.93;100.00
53270;BME280;39159;45.634;9.420;2023-05-12T02:04:01;98448.72;;;10.96;100.00
53270;BME280;39159;45.634;9.420;2023-05-12T02:06:27;98447.09;;;10.95;100.00
53270;BME280;39159;45.634;9.420;2023-05-12T02:08:53;98445.50;;;10.94;100.00
53270;BME280;39159;45.634;9.420;2023-05-12T02:11:18;98450.16;;;10.94;100.00
53270;BME280;39159;45.634;9.420;2023-05-12T02:13:44;98453.19;;;10.92;100.00
53270;BME280;39159;45.634;9.420;2023-05-12T02:16:10;98444.53;;;10.90;100.00
53270;BME280;39159;45.634;9.420;2023-05-12T02:18:35;98442.47;;;10.87;100.00
53270;BME280;39159;45.634;9.420;2023-05-12T02:21:02;98438.91;;;10.87;100.00
53270;BME280;39159;45.634;9.420;2023-05-12T02:23:27;98438.91;;;10.87;100.00
53270;BME280;39159;45.634;9.420;2023-05-12T02:25:53;98441.31;;;10.88;100.00
53270;BME280;39159;45.634;9.420;2023-05-12T02:28:18;98437.44;;;10.89;100.00
53270;BME280;39159;45.634;9.420;2023-05-12T02:30:45;98429.75;;;10.91;100.00
53270;BME280;39159;45.634;9.420;2023-05-12T02:33:13;98446.13;;;10.91;100.00
53270;BME280;39159;45.634;9.420;2023-05-12T02:35:38;98436.34;;;10.90;100.00
53270;BME280;39159;45.634;9.420;2023-05-12T02:38:04;98440.66;;;10.91;100.00
53270;BME280;39159;45.634;9.420;2023-05-12T02:40:29;98449.19;;;10.98;100.00
53270;BME280;39159;45.634;9.420;2023-05-12T02:42:55;98440.34;;;11.02;100.00
53270;BME280;39159;45.634;9.420;2023-05-12T02:45:20;98443.06;;;11.02;100.00
53270;BME280;39159;45.634;9.420;2023-05-12T02:47:46;98445.00;;;11.01;100.00
53270;BME280;39159;45.634;9.420;2023-05-12T02:50:12;98444.22;;;11.01;100.00
53270;BME280;39159;45.634;9.420;2023-05-12T02:52:38;98437.59;;;11.02;100.00
53270;BME280;39159;45.634;9.420;2023-05-12T02:55:03;98440.34;;;11.02;100.00
53270;BME280;39159;45.634;9.420;2023-05-12T02:57:29;98437.13;;;10.99;100.00
53270;BME280;39159;45.634;9.420;2023-05-12T03:00:01;98439.06;;;10.99;100.00
53270;BME280;39159;45.634;9.420;2023-05-12T03:02:30;98446.94;;;11.01;100.00
53270;BME280;39159;45.634;9.420;2023-05-12T03:04:55;98443.88;;;11.02;100.00
53270;BME280;39159;45.634;9.420;2023-05-12T03:07:20;98445.31;;;10.99;100.00
53270;BME280;39159;45.634;9.420;2023-05-12T03:09:47;98446.13;;;10.91;100.00
53270;BME280;39159;45.634;9.420;2023-05-12T03:12:12;98442.91;;;10.98;100.00
53270;BME280;39159;45.634;9.420;2023-05-12T03:14:38;98451.75;;;10.95;100.00
53270;BME280;39159;45.634;9.420;2023-05-12T03:17:03;98442.75;;;10.94;100.00
53270;BME280;39159;45.634;9.420;2023-05-12T03:19:29;98438.91;;;10.95;100.00
53270;BME280;39159;45.634;9.420;2023-05-12T03:21:54;98441.63;;;10.95;100.00
53270;BME280;39159;45.634;9.420;2023-05-12T03:24:20;98443.88;;;10.93;100.00
53270;BME280;39159;45.634;9.420;2023-05-12T03:26:45;98433.28;;;10.92;100.00
53270;BME280;39159;45.634;9.420;2023-05-12T03:29:12;98439.06;;;10.90;100.00
53270;BME280;39159;45.634;9.420;2023-05-12T03:31:37;98446.13;;;10.91;100.00
53270;BME280;39159;45.634;9.420;2023-05-12T03:34:03;98444.53;;;10.90;100.00
53270;BME280;39159;45.634;9.420;2023-05-12T03:36:28;98439.25;;;10.94;100.00
53270;BME280;39159;45.634;9.420;2023-05-12T03:38:54;98445.50;;;10.94;100.00
53270;BME280;39159;45.634;9.420;2023-05-12T03:41:19;98449.19;;;10.90;100.00
53270;BME280;39159;45.634;9.420;2023-05-12T03:43:46;98439.72;;;10.87;100.00
53270;BME280;39159;45.634;9.420;2023-05-12T03:46:11;98445.63;;;10.89;100.00
53270;BME280;39159;45.634;9.420;2023-05-12T03:48:37;98436.03;;;10.92;100.00
53270;BME280;39159;45.634;9.420;2023-05-12T03:51:02;98434.72;;;10.89;100.00
53270;BME280;39159;45.634;9.420;2023-05-12T03:53:28;98437.78;;;10.88;100.00
53270;BME280;39159;45.634;9.420;2023-05-12T03:55:53;98430.09;;;10.90;100.00
53270;BME280;39159;45.634;9.420;2023-05-12T03:58:19;98436.66;;;10.89;100.00
53270;BME280;39159;45.634;9.420;2023-05-12T04:00:46;98433.94;;;10.89;100.00
53270;BME280;39159;45.634;9.420;2023-05-12T04:03:13;98432.47;;;10.91;100.00
53270;BME280;39159;45.634;9.420;2023-05-12T04:05:39;98434.56;;;10.94;100.00
53270;BME280;39159;45.634;9.420;2023-05-12T04:08:09;98435.06;;;10.96;100.00
53270;BME280;39159;45.634;9.420;2023-05-12T04:10:39;98434.56;;;10.94;100.00
53270;BME280;39159;45.634;9.420;2023-05-12T04:13:04;98440.66;;;10.91;100.00
53270;BME280;39159;45.634;9.420;2023-05-12T04:15:30;98436.50;;;10.85;100.00
53270;BME280;39159;45.634;9.420;2023-05-12T04:17:56;98444.34;;;10.87;100.00
53270;BME280;39159;45.634;9.420;2023-05-12T04:20:22;98435.53;;;10.90;100.00
53270;BME280;39159;45.634;9.420;2023-05-12T04:22:47;98442.13;;;10.89;100.00
53270;BME280;39159;45.634;9.420;2023-05-12T04:25:13;98437.78;;;10.96;100.00
53270;BME280;39159;45.634;9.420;2023-05-12T04:27:38;98443.84;;;11.11;100.00
53270;BME280;39159;45.634;9.420;2023-05-12T04:30:04;98431.66;;;11.17;100.00
53270;BME280;39159;45.634;9.420;2023-05-12T04:32:30;98447.25;;;11.16;100.00
53270;BME280;39159;45.634;9.420;2023-05-12T04:34:56;98449.13;;;11.16;100.00
53270;BME280;39159;45.634;9.420;2023-05-12T04:37:21;98451.06;;;11.24;100.00
53270;BME280;39159;45.634;9.420;2023-05-12T04:39:47;98449.78;;;11.30;100.00
53270;BME280;39159;45.634;9.420;2023-05-12T04:42:12;98451.53;;;11.26;100.00
53270;BME280;39159;45.634;9.420;2023-05-12T04:44:38;98458.63;;;11.27;100.00
53270;BME280;39159;45.634;9.420;2023-05-12T04:47:04;98466.66;;;11.32;100.00
53270;BME280;39159;45.634;9.420;2023-05-12T04:49:29;98459.44;;;11.28;100.00
53270;BME280;39159;45.634;9.420;2023-05-12T04:51:55;98459.25;;;11.33;100.00
53270;BME280;39159;45.634;9.420;2023-05-12T04:54:20;98463.41;;;11.39;100.00
53270;BME280;39159;45.634;9.420;2023-05-12T04:56:46;98465.66;;;11.46;100.00
53270;BME280;39159;45.634;9.420;2023-05-12T04:59:12;98460.97;;;11.46;100.00
53270;BME280;39159;45.634;9.420;2023-05-12T05:01:42;98462.28;;;11.40;100.00
53270;BME280;39159;45.634;9.420;2023-05-12T05:04:07;98462.13;;;11.36;100.00
53270;BME280;39159;45.634;9.420;2023-05-12T05:06:33;98461.19;;;11.32;100.00
53270;BME280;39159;45.634;9.420;2023-05-12T05:08:58;98461.00;;;11.29;100.00
53270;BME280;39159;45.634;9.420;2023-05-12T05:11:24;98463.44;;;11.30;100.00
53270;BME280;39159;45.634;9.420;2023-05-12T05:13:50;98463.44;;;11.30;100.00
53270;BME280;39159;45.634;9.420;2023-05-12T05:16:15;98464.72;;;11.33;100.00
53270;BME280;39159;45.634;9.420;2023-05-12T05:18:41;98472.25;;;11.36;100.00
53270;BME280;39159;45.634;9.420;2023-05-12T05:21:11;98476.75;;;11.40;100.00
53270;BME280;39159;45.634;9.420;2023-05-12T05:23:37;98466.16;;;11.39;100.00
53270;BME280;39159;45.634;9.420;2023-05-12T05:26:02;98475.94;;;11.40;100.00
53270;BME280;39159;45.634;9.420;2023-05-12T05:28:28;98476.56;;;11.46;100.00
53270;BME280;39159;45.634;9.420;2023-05-12T05:30:53;98480.09;;;11.46;100.00
53270;BME280;39159;45.634;9.420;2023-05-12T05:33:19;98475.91;;;11.49;100.00
53270;BME280;39159;45.634;9.420;2023-05-12T05:35:45;98477.34;;;11.55;100.00
53270;BME280;39159;45.634;9.420;2023-05-12T05:38:11;98485.06;;;11.53;100.00
53270;BME280;39159;45.634;9.420;2023-05-12T05:40:37;98489.09;;;11.55;100.00
53270;BME280;39159;45.634;9.420;2023-05-12T05:43:02;98486.81;;;11.66;100.00
53270;BME280;39159;45.634;9.420;2023-05-12T05:45:28;98489.22;;;11.68;100.00
53270;BME280;39159;45.634;9.420;2023-05-12T05:47:53;98486.97;;;11.70;100.00
53270;BME280;39159;45.634;9.420;2023-05-12T05:50:19;98484.22;;;11.70;100.00
53270;BME280;39159;45.634;9.420;2023-05-12T05:52:44;98487.56;;;11.75;100.00
53270;BME280;39159;45.634;9.420;2023-05-12T05:55:10;98493.34;;;11.82;100.00
53270;BME280;39159;45.634;9.420;2023-05-12T05:57:35;98496.06;;;11.91;100.00
53270;BME280;39159;45.634;9.420;2023-05-12T06:00:02;98492.34;;;11.96;100.00
53270;BME280;39159;45.634;9.420;2023-05-12T06:02:29;98485.09;;;12.00;100.00
53270;BME280;39159;45.634;9.420;2023-05-12T06:04:56;98483.31;;;12.04;100.00
53270;BME280;39159;45.634;9.420;2023-05-12T06:07:22;98497.66;;;12.01;100.00
53270;BME280;39159;45.634;9.420;2023-05-12T06:09:47;98493.66;;;11.98;100.00
53270;BME280;39159;45.634;9.420;2023-05-12T06:12:13;98498.13;;;12.03;100.00
53270;BME280;39159;45.634;9.420;2023-05-12T06:14:38;98500.66;;;12.08;100.00
53270;BME280;39159;45.634;9.420;2023-05-12T06:17:04;98499.22;;;12.11;100.00
53270;BME280;39159;45.634;9.420;2023-05-12T06:19:29;98499.88;;;12.08;100.00
53270;BME280;39159;45.634;9.420;2023-05-12T06:21:55;98503.69;;;12.15;100.00
53270;BME280;39159;45.634;9.420;2023-05-12T06:24:20;98503.09;;;12.10;100.00
53270;BME280;39159;45.634;9.420;2023-05-12T06:26:45;98499.38;;;12.14;100.00
53270;BME280;39159;45.634;9.420;2023-05-12T06:29:11;98506.44;;;12.15;100.00
53270;BME280;39159;45.634;9.420;2023-05-12T06:31:36;98505.13;;;12.21;100.00
53270;BME280;39159;45.634;9.420;2023-05-12T06:34:02;98507.59;;;12.35;100.00
53270;BME280;39159;45.634;9.420;2023-05-12T06:36:28;98513.25;;;12.39;100.00
53270;BME280;39159;45.634;9.420;2023-05-12T06:38:54;98515.19;;;12.38;100.00
53270;BME280;39159;45.634;9.420;2023-05-12T06:41:20;98522.13;;;12.27;100.00
53270;BME280;39159;45.634;9.420;2023-05-12T06:43:46;98511.84;;;12.24;100.00
53270;BME280;39159;45.634;9.420;2023-05-12T06:46:11;98518.94;;;12.25;100.00
53270;BME280;39159;45.634;9.420;2023-05-12T06:48:37;98519.13;;;12.20;100.00
53270;BME280;39159;45.634;9.420;2023-05-12T06:51:03;98521.72;;;12.16;100.00
53270;BME280;39159;45.634;9.420;2023-05-12T06:53:28;98513.41;;;12.04;100.00
53270;BME280;39159;45.634;9.420;2023-05-12T06:55:54;98519.81;;;12.08;100.00
53270;BME280;39159;45.634;9.420;2023-05-12T06:58:19;98510.91;;;12.20;100.00
53270;BME280;39159;45.634;9.420;2023-05-12T07:00:46;98508.44;;;12.27;100.00
53270;BME280;39159;45.634;9.420;2023-05-12T07:03:12;98511.81;;;12.33;100.00
53270;BME280;39159;45.634;9.420;2023-05-12T07:05:37;98510.78;;;12.46;100.00
53270;BME280;39159;45.634;9.420;2023-05-12T07:08:04;98510.94;;;12.50;100.00
53270;BME280;39159;45.634;9.420;2023-05-12T07:10:30;98523.63;;;12.54;100.00
53270;BME280;39159;45.634;9.420;2023-05-12T07:12:57;98517.47;;;12.57;100.00
53270;BME280;39159;45.634;9.420;2023-05-12T07:15:22;98507.00;;;12.59;100.00
53270;BME280;39159;45.634;9.420;2023-05-12T07:17:48;98512.25;;;12.64;100.00
53270;BME280;39159;45.634;9.420;2023-05-12T07:20:13;98508.56;;;12.60;100.00
53270;BME280;39159;45.634;9.420;2023-05-12T07:22:39;98510.53;;;12.60;100.00
53270;BME280;39159;45.634;9.420;2023-05-12T07:25:05;98509.47;;;12.52;100.00
53270;BME280;39159;45.634;9.420;2023-05-12T07:27:32;98516.75;;;12.69;100.00
53270;BME280;39159;45.634;9.420;2023-05-12T07:29:57;98515.00;;;12.64;100.00
53270;BME280;39159;45.634;9.420;2023-05-12T07:32:23;98514.16;;;12.73;100.00
53270;BME280;39159;45.634;9.420;2023-05-12T07:34:49;98528.03;;;12.68;100.00
53270;BME280;39159;45.634;9.420;2023-05-12T07:37:15;98530.72;;;12.76;100.00
53270;BME280;39159;45.634;9.420;2023-05-12T07:39:40;98533.59;;;12.80;100.00
53270;BME280;39159;45.634;9.420;2023-05-12T07:42:06;98535.94;;;12.90;100.00
53270;BME280;39159;45.634;9.420;2023-05-12T07:44:31;98531.66;;;13.01;100.00
53270;BME280;39159;45.634;9.420;2023-05-12T07:46:57;98535.28;;;13.14;100.00
53270;BME280;39159;45.634;9.420;2023-05-12T07:49:23;98542.22;;;13.12;100.00
53270;BME280;39159;45.634;9.420;2023-05-12T07:51:49;98540.53;;;13.19;100.00
53270;BME280;39159;45.634;9.420;2023-05-12T07:54:14;98542.69;;;13.35;100.00
53270;BME280;39159;45.634;9.420;2023-05-12T07:56:40;98545.38;;;13.43;100.00
53270;BME280;39159;45.634;9.420;2023-05-12T07:59:05;98534.25;;;13.40;100.00
53270;BME280;39159;45.634;9.420;2023-05-12T08:01:31;98535.13;;;13.53;100.00
53270;BME280;39159;45.634;9.420;2023-05-12T08:03:56;98540.28;;;13.66;100.00
53270;BME280;39159;45.634;9.420;2023-05-12T08:06:22;98529.69;;;13.77;100.00
53270;BME280;39159;45.634;9.420;2023-05-12T08:08:47;98543.13;;;14.03;100.00
53270;BME280;39159;45.634;9.420;2023-05-12T08:11:13;98543.13;;;14.16;100.00
53270;BME280;39159;45.634;9.420;2023-05-12T08:13:39;98547.03;;;14.15;100.00
53270;BME280;39159;45.634;9.420;2023-05-12T08:16:04;98545.31;;;14.22;100.00
53270;BME280;39159;45.634;9.420;2023-05-12T08:18:30;98547.94;;;14.31;100.00
53270;BME280;39159;45.634;9.420;2023-05-12T08:20:56;98554.00;;;14.12;100.00
53270;BME280;39159;45.634;9.420;2023-05-12T08:23:22;98552.50;;;14.15;100.00
53270;BME280;39159;45.634;9.420;2023-05-12T08:25:47;98548.63;;;14.03;100.00
53270;BME280;39159;45.634;9.420;2023-05-12T08:28:13;98553.63;;;14.14;100.00
53270;BME280;39159;45.634;9.420;2023-05-12T08:30:40;98564.16;;;14.12;100.00
53270;BME280;39159;45.634;9.420;2023-05-12T08:33:05;98559.13;;;14.01;100.00
53270;BME280;39159;45.634;9.420;2023-05-12T08:35:31;98566.34;;;14.06;100.00
53270;BME280;39159;45.634;9.420;2023-05-12T08:37:57;98553.97;;;14.00;100.00
53270;BME280;39159;45.634;9.420;2023-05-12T08:40:23;98566.56;;;14.13;100.00
53270;BME280;39159;45.634;9.420;2023-05-12T08:45:40;98563.38;;;14.36;100.00
53270;BME280;39159;45.634;9.420;2023-05-12T08:48:08;98572.31;;;14.45;100.00
53270;BME280;39159;45.634;9.420;2023-05-12T08:50:37;98563.63;;;14.43;100.00
53270;BME280;39159;45.634;9.420;2023-05-12T08:53:08;98567.41;;;14.50;100.00
53270;BME280;39159;45.634;9.420;2023-05-12T08:55:35;98569.38;;;14.62;100.00
53270;BME280;39159;45.634;9.420;2023-05-12T08:58:02;98569.78;;;14.40;100.00
53270;BME280;39159;45.634;9.420;2023-05-12T09:00:28;98562.94;;;14.46;100.00
53270;BME280;39159;45.634;9.420;2023-05-12T09:02:56;98565.94;;;14.65;100.00
53270;BME280;39159;45.634;9.420;2023-05-12T09:05:23;98568.91;;;14.60;100.00
53270;BME280;39159;45.634;9.420;2023-05-12T09:07:52;98579.09;;;14.60;100.00
53270;BME280;39159;45.634;9.420;2023-05-12T09:10:20;98570.03;;;14.71;100.00
53270;BME280;39159;45.634;9.420;2023-05-12T09:12:46;98577.13;;;14.85;100.00
53270;BME280;39159;45.634;9.420;2023-05-12T09:15:19;98571.06;;;14.79;100.00
53270;BME280;39159;45.634;9.420;2023-05-12T09:17:44;98564.75;;;14.91;100.00
53270;BME280;39159;45.634;9.420;2023-05-12T09:20:11;98571.50;;;15.06;100.00
53270;BME280;39159;45.634;9.420;2023-05-12T09:22:37;98567.91;;;15.18;100.00
53270;BME280;39159;45.634;9.420;2023-05-12T09:25:19;98566.25;;;15.41;100.00
53270;BME280;39159;45.634;9.420;2023-05-12T09:27:46;98562.63;;;15.53;100.00
53270;BME280;39159;45.634;9.420;2023-05-12T09:30:11;98560.28;;;15.67;100.00
53270;BME280;39159;45.634;9.420;2023-05-12T09:32:37;98571.78;;;15.57;100.00
53270;BME280;39159;45.634;9.420;2023-05-12T09:35:07;98557.44;;;15.92;100.00
53270;BME280;39159;45.634;9.420;2023-05-12T09:37:36;98553.94;;;15.79;100.00
53270;BME280;39159;45.634;9.420;2023-05-12T09:40:03;98558.22;;;15.92;100.00
53270;BME280;39159;45.634;9.420;2023-05-12T09:42:31;98560.25;;;15.95;100.00
53270;BME280;39159;45.634;9.420;2023-05-12T09:45:04;98548.13;;;16.12;100.00
53270;BME280;39159;45.634;9.420;2023-05-12T09:47:34;98543.03;;;15.54;100.00
53270;BME280;39159;45.634;9.420;2023-05-12T09:50:01;98538.19;;;15.36;100.00
53270;BME280;39159;45.634;9.420;2023-05-12T09:52:28;98552.53;;;15.57;100.00
53270;BME280;39159;45.634;9.420;2023-05-12T09:54:53;98552.19;;;15.59;100.00
53270;BME280;39159;45.634;9.420;2023-05-12T09:57:20;98541.94;;;15.43;100.00
53270;BME280;39159;45.634;9.420;2023-05-12T09:59:48;98548.38;;;15.63;100.00
53270;BME280;39159;45.634;9.420;2023-05-12T10:02:14;98544.09;;;15.78;100.00
53270;BME280;39159;45.634;9.420;2023-05-12T10:04:51;98545.97;;;15.74;100.00
53270;BME280;39159;45.634;9.420;2023-05-12T10:07:21;98547.13;;;15.89;100.00
53270;BME280;39159;45.634;9.420;2023-05-12T10:09:48;98543.59;;;16.20;100.00
53270;BME280;39159;45.634;9.420;2023-05-12T10:12:15;98538.25;;;16.27;100.00
53270;BME280;39159;45.634;9.420;2023-05-12T10:14:41;98540.84;;;16.04;100.00
53270;BME280;39159;45.634;9.420;2023-05-12T10:17:08;98551.75;;;16.01;100.00
53270;BME280;39159;45.634;9.420;2023-05-12T10:19:34;98541.88;;;15.84;100.00
53270;BME280;39159;45.634;9.420;2023-05-12T10:22:00;98542.22;;;15.82;100.00
53270;BME280;39159;45.634;9.420;2023-05-12T10:24:26;98544.31;;;16.33;100.00
53270;BME280;39159;45.634;9.420;2023-05-12T10:26:55;98540.56;;;16.57;100.00
53270;BME280;39159;45.634;9.420;2023-05-12T10:29:22;98540.44;;;16.69;100.00
53270;BME280;39159;45.634;9.420;2023-05-12T10:31:56;98541.94;;;16.67;100.00
53270;BME280;39159;45.634;9.420;2023-05-12T10:34:21;98538.94;;;16.56;100.00
53270;BME280;39159;45.634;9.420;2023-05-12T10:36:49;98542.31;;;16.49;100.00
53270;BME280;39159;45.634;9.420;2023-05-12T10:39:15;98535.16;;;16.13;100.00
53270;BME280;39159;45.634;9.420;2023-05-12T10:41:41;98544.22;;;16.13;100.00
53270;BME280;39159;45.634;9.420;2023-05-12T10:44:09;98543.34;;;16.25;100.00
53270;BME280;39159;45.634;9.420;2023-05-12T10:46:35;98537.13;;;16.28;100.00
53270;BME280;39159;45.634;9.420;2023-05-12T10:49:06;98543.06;;;16.30;100.00
53270;BME280;39159;45.634;9.420;2023-05-12T10:51:34;98537.13;;;16.28;100.00
53270;BME280;39159;45.634;9.420;2023-05-12T10:54:11;98540.94;;;16.08;100.00
53270;BME280;39159;45.634;9.420;2023-05-12T10:56:43;98537.56;;;15.99;100.00
53270;BME280;39159;45.634;9.420;2023-05-12T10:59:23;98538.53;;;15.90;100.00
53270;BME280;39159;45.634;9.420;2023-05-12T11:02:02;98550.88;;;15.97;100.00
53270;BME280;39159;45.634;9.420;2023-05-12T11:04:39;98543.31;;;15.93;100.00
53270;BME280;39159;45.634;9.420;2023-05-12T11:07:06;98548.28;;;15.88;100.00
53270;BME280;39159;45.634;9.420;2023-05-12T11:09:38;98549.41;;;15.71;100.00
53270;BME280;39159;45.634;9.420;2023-05-12T11:12:07;98544.28;;;15.85;100.00
53270;BME280;39159;45.634;9.420;2023-05-12T11:14:34;98550.03;;;15.80;100.00
53270;BME280;39159;45.634;9.420;2023-05-12T11:17:00;98545.16;;;15.89;100.00
53270;BME280;39159;45.634;9.420;2023-05-12T11:19:26;98550.94;;;16.00;100.00
53270;BME280;39159;45.634;9.420;2023-05-12T11:21:55;98541.84;;;16.12;100.00
53270;BME280;39159;45.634;9.420;2023-05-12T11:24:21;98546.63;;;16.15;100.00
53270;BME280;39159;45.634;9.420;2023-05-12T11:26:46;98537.47;;;16.11;100.00
53270;BME280;39159;45.634;9.420;2023-05-12T11:29:19;98538.09;;;16.04;100.00
53270;BME280;39159;45.634;9.420;2023-05-12T11:31:49;98540.94;;;15.92;100.00
53270;BME280;39159;45.634;9.420;2023-05-12T11:34:15;98538.59;;;15.94;100.00
53270;BME280;39159;45.634;9.420;2023-05-12T11:36:42;98544.66;;;16.00;100.00
53270;BME280;39159;45.634;9.420;2023-05-12T11:39:22;98539.50;;;16.14;100.00
53270;BME280;39159;45.634;9.420;2023-05-12T11:41:49;98548.56;;;16.14;100.00
53270;BME280;39159;45.634;9.420;2023-05-12T11:44:16;98539.06;;;16.12;100.00
53270;BME280;39159;45.634;9.420;2023-05-12T11:49:27;98538.78;;;15.85;100.00
53270;BME280;39159;45.634;9.420;2023-05-12T11:51:55;98537.00;;;15.93;100.00
53270;BME280;39159;45.634;9.420;2023-05-12T11:54:21;98541.91;;;16.00;100.00
53270;BME280;39159;45.634;9.420;2023-05-12T11:56:50;98538.81;;;16.01;100.00
53270;BME280;39159;45.634;9.420;2023-05-12T12:01:51;98536.22;;;15.92;100.00
53270;BME280;39159;45.634;9.420;2023-05-12T12:04:17;98531.44;;;16.05;100.00
53270;BME280;39159;45.634;9.420;2023-05-12T12:06:43;98534.53;;;16.04;100.00
53270;BME280;39159;45.634;9.420;2023-05-12T12:09:09;98526.34;;;16.07;100.00
53270;BME280;39159;45.634;9.420;2023-05-12T12:11:34;98523.06;;;16.33;100.00
53270;BME280;39159;45.634;9.420;2023-05-12T12:14:00;98525.94;;;16.72;100.00
53270;BME280;39159;45.634;9.420;2023-05-12T12:16:28;98520.78;;;16.87;100.00
53270;BME280;39159;45.634;9.420;2023-05-12T12:18:54;98516.06;;;16.71;100.00
53270;BME280;39159;45.634;9.420;2023-05-12T12:21:21;98525.50;;;16.70;100.00
53270;BME280;39159;45.634;9.420;2023-05-12T12:23:47;98521.03;;;17.17;100.00
53270;BME280;39159;45.634;9.420;2023-05-12T12:26:13;98528.41;;;17.52;100.00
53270;BME280;39159;45.634;9.420;2023-05-12T12:28:50;98530.69;;;17.46;100.00
53270;BME280;39159;45.634;9.420;2023-05-12T12:31:15;98531.09;;;17.68;97.39
53270;BME280;39159;45.634;9.420;2023-05-12T12:33:41;98541.06;;;18.18;100.00
53270;BME280;39159;45.634;9.420;2023-05-12T12:36:07;98540.53;;;18.09;100.00
53270;BME280;39159;45.634;9.420;2023-05-12T12:38:33;98543.06;;;17.56;100.00
53270;BME280;39159;45.634;9.420;2023-05-12T12:40:58;98540.41;;;17.59;100.00
53270;BME280;39159;45.634;9.420;2023-05-12T12:43:25;98546.66;;;17.56;100.00
53270;BME280;39159;45.634;9.420;2023-05-12T12:45:51;98539.88;;;17.54;100.00
53270;BME280;39159;45.634;9.420;2023-05-12T12:48:17;98546.78;;;17.64;100.00
53270;BME280;39159;45.634;9.420;2023-05-12T12:50:42;98546.66;;;17.37;100.00
53270;BME280;39159;45.634;9.420;2023-05-12T12:53:08;98544.34;;;17.39;100.00
53270;BME280;39159;45.634;9.420;2023-05-12T12:55:34;98557.53;;;17.10;100.00